createdAt,value
2023-05-23T00:01:21.300Z,160.83
2023-05-23T00:03:49.387Z,160.87
2023-05-23T00:06:22.068Z,161.07
2023-05-23T00:08:50.560Z,160.30
2023-05-23T00:11:20.208Z,160.87
2023-05-23T00:13:48.056Z,161.33
2023-05-23T00:16:17.305Z,161.07
2023-05-23T00:18:45.597Z,161.33
2023-05-23T00:21:13.984Z,160.40
2023-05-23T00:23:42.256Z,160.33
2023-05-23T00:26:10.542Z,161.07
2023-05-23T00:28:40.689Z,160.53
2023-05-23T00:31:08.613Z,160.30
2023-05-23T00:33:38.357Z,160.27
2023-05-23T00:36:06.566Z,161.43
2023-05-23T00:38:34.448Z,160.93
2023-05-23T00:41:03.057Z,161.07
2023-05-23T00:43:31.480Z,161.33
2023-05-23T00:45:59.712Z,160.80
2023-05-23T00:48:27.741Z,161.03
2023-05-23T00:50:58.061Z,161.07
2023-05-23T00:53:26.465Z,161.17
2023-05-23T00:55:54.397Z,161.57
2023-05-23T00:58:22.526Z,162.07
2023-05-23T01:00:54.268Z,161.83
2023-05-23T01:03:23.730Z,162.53
2023-05-23T01:05:51.935Z,161.07
2023-05-23T01:08:22.070Z,161.70
2023-05-23T01:10:50.609Z,161.60
2023-05-23T01:13:24.866Z,161.50
2023-05-23T01:16:02.632Z,161.57
2023-05-23T01:18:34.653Z,161.40
2023-05-23T01:21:07.378Z,161.53
2023-05-23T01:24:13.392Z,161.17
2023-05-23T01:26:54.228Z,161.40
2023-05-23T01:29:27.516Z,161.50
2023-05-23T01:31:58.336Z,161.90
2023-05-23T01:34:27.044Z,161.37
2023-05-23T01:36:56.725Z,160.43
2023-05-23T01:39:25.366Z,161.27
2023-05-23T01:41:54.975Z,161.20
2023-05-23T01:44:24.274Z,161.17
2023-05-23T01:46:52.408Z,161.17
2023-05-23T01:49:23.145Z,162.20
2023-05-23T01:51:51.678Z,160.93
2023-05-23T01:54:20.653Z,161.00
2023-05-23T01:56:51.413Z,161.93
2023-05-23T01:59:19.379Z,162.20
2023-05-23T02:01:48.755Z,161.80
2023-05-23T02:04:16.711Z,161.53
2023-05-23T02:06:45.221Z,161.63
2023-05-23T02:09:14.508Z,161.47
2023-05-23T02:11:42.403Z,160.93
2023-05-23T02:14:12.769Z,160.83
2023-05-23T02:16:40.730Z,161.40
2023-05-23T02:19:09.982Z,162.00
2023-05-23T02:21:38.777Z,161.67
2023-05-23T02:24:06.950Z,161.27
2023-05-23T02:26:34.786Z,161.17
2023-05-23T02:29:02.651Z,161.10
2023-05-23T02:31:30.948Z,160.67
2023-05-23T02:33:59.112Z,161.43
2023-05-23T02:36:28.574Z,161.57
2023-05-23T02:38:56.728Z,161.87
2023-05-23T02:41:25.047Z,161.77
2023-05-23T02:43:53.033Z,161.40
2023-05-23T02:46:20.991Z,160.77
2023-05-23T02:48:49.534Z,159.97
2023-05-23T02:51:17.565Z,160.43
2023-05-23T02:53:46.834Z,161.00
2023-05-23T02:56:15.722Z,161.33
2023-05-23T02:58:43.598Z,160.83
2023-05-23T03:01:11.981Z,160.33
2023-05-23T03:03:40.052Z,160.80
2023-05-23T03:06:10.651Z,160.83
2023-05-23T03:08:38.990Z,161.10
2023-05-23T03:11:08.410Z,160.50
2023-05-23T03:13:37.093Z,160.73
2023-05-23T03:16:05.228Z,161.23
2023-05-23T03:18:33.312Z,160.47
2023-05-23T03:21:01.383Z,160.93
2023-05-23T03:23:29.646Z,160.53
2023-05-23T03:25:57.707Z,161.30
2023-05-23T03:28:27.119Z,161.17
2023-05-23T03:30:55.146Z,161.00
2023-05-23T03:33:23.312Z,161.80
2023-05-23T03:35:51.638Z,159.77
2023-05-23T03:38:19.800Z,161.03
2023-05-23T03:40:48.340Z,161.40
2023-05-23T03:43:16.820Z,160.70
2023-05-23T03:45:46.926Z,161.07
2023-05-23T03:48:17.360Z,160.87
2023-05-23T03:50:45.657Z,160.33
2023-05-23T03:53:14.541Z,161.50
2023-05-23T03:55:44.146Z,161.17
2023-05-23T03:58:13.222Z,161.10
2023-05-23T04:00:43.951Z,161.40
2023-05-23T04:03:17.657Z,161.33
2023-05-23T04:05:47.327Z,160.20
2023-05-23T04:08:16.835Z,160.37
2023-05-23T04:10:47.209Z,160.70
2023-05-23T04:13:15.488Z,160.50
2023-05-23T04:15:45.268Z,159.63
2023-05-23T04:18:17.465Z,160.37
2023-05-23T04:20:45.928Z,160.27
2023-05-23T04:23:14.226Z,160.47
2023-05-23T04:25:44.734Z,161.63
2023-05-23T04:28:18.921Z,159.53
2023-05-23T04:30:49.286Z,159.27
2023-05-23T04:33:21.654Z,160.50
2023-05-23T04:35:51.152Z,160.20
2023-05-23T04:38:19.474Z,160.47
2023-05-23T04:40:48.191Z,160.00
2023-05-23T04:43:16.381Z,160.20
2023-05-23T04:45:54.860Z,160.43
2023-05-23T04:48:44.659Z,159.50
2023-05-23T04:51:12.656Z,160.10
2023-05-23T04:53:47.312Z,159.83
2023-05-23T04:56:17.246Z,159.87
2023-05-23T04:58:45.828Z,160.37
2023-05-23T05:01:15.672Z,159.77
2023-05-23T05:03:45.197Z,159.20
2023-05-23T05:06:14.466Z,159.93
2023-05-23T05:08:43.282Z,159.37
2023-05-23T05:11:12.320Z,160.17
2023-05-23T05:13:40.492Z,159.70
2023-05-23T05:16:08.959Z,159.70
2023-05-23T05:18:37.293Z,160.37
2023-05-23T05:21:06.597Z,160.17
2023-05-23T05:23:34.478Z,159.63
2023-05-23T05:26:03.284Z,160.13
2023-05-23T05:28:31.471Z,160.53
2023-05-23T05:31:00.191Z,160.77
2023-05-23T05:33:28.252Z,160.63
2023-05-23T05:36:04.162Z,160.30
2023-05-23T05:38:35.156Z,160.50
2023-05-23T05:41:03.239Z,160.73
2023-05-23T05:43:35.835Z,161.30
2023-05-23T05:46:03.749Z,160.63
2023-05-23T05:48:32.568Z,160.90
2023-05-23T05:51:04.793Z,160.60
2023-05-23T05:53:36.320Z,160.20
2023-05-23T05:56:04.425Z,160.53
2023-05-23T05:58:33.486Z,160.63
2023-05-23T06:01:08.555Z,160.83
2023-05-23T06:03:37.216Z,160.60
2023-05-23T06:06:05.502Z,160.13
2023-05-23T06:08:34.716Z,160.40
2023-05-23T06:11:02.657Z,159.63
2023-05-23T06:13:31.629Z,159.47
2023-05-23T06:15:59.553Z,159.83
2023-05-23T06:18:27.549Z,160.40
2023-05-23T06:20:55.711Z,160.27
2023-05-23T06:23:23.705Z,160.13
2023-05-23T06:25:53.009Z,159.57
2023-05-23T06:28:20.996Z,159.23
2023-05-23T06:37:30.797Z,158.17
2023-05-23T06:39:58.677Z,158.60
2023-05-23T06:42:28.179Z,158.30
2023-05-23T06:45:05.117Z,158.70
2023-05-23T06:47:33.777Z,159.40
2023-05-23T06:50:05.425Z,158.70
2023-05-23T07:02:33.880Z,158.13
2023-05-23T07:05:07.070Z,159.27
2023-05-23T07:07:47.059Z,158.83
2023-05-23T07:10:15.736Z,159.00
2023-05-23T07:12:44.253Z,159.77
2023-05-23T07:15:13.524Z,158.97
2023-05-23T07:17:52.560Z,158.50
2023-05-23T07:20:20.706Z,159.03
2023-05-23T07:22:51.568Z,158.70
2023-05-23T07:25:19.924Z,159.30
2023-05-23T07:27:47.839Z,158.13
2023-05-23T07:30:16.472Z,158.70
2023-05-23T07:33:04.846Z,158.77
2023-05-23T07:35:38.592Z,158.20
2023-05-23T07:38:08.730Z,157.80
2023-05-23T07:40:38.468Z,157.97
2023-05-23T07:43:06.718Z,158.27
2023-05-23T07:45:34.664Z,158.50
2023-05-23T07:48:04.097Z,157.90
2023-05-23T07:50:32.768Z,158.37
2023-05-23T07:53:01.062Z,158.10
2023-05-23T07:55:31.450Z,158.57
2023-05-23T07:57:59.857Z,158.80
2023-05-23T08:00:28.743Z,158.20
2023-05-23T08:03:05.272Z,157.73
2023-05-23T08:05:39.214Z,158.17
2023-05-23T08:08:07.181Z,158.43
2023-05-23T08:10:35.515Z,157.20
2023-05-23T08:13:11.257Z,158.07
2023-05-23T08:15:51.109Z,157.13
2023-05-23T08:18:26.050Z,158.03
2023-05-23T08:20:55.110Z,157.43
2023-05-23T08:23:23.010Z,157.70
2023-05-23T08:25:51.024Z,158.20
2023-05-23T08:28:19.346Z,157.97
2023-05-23T08:30:57.025Z,157.10
2023-05-23T08:33:27.681Z,156.13
2023-05-23T08:35:58.943Z,155.73
2023-05-23T08:38:27.182Z,156.83
2023-05-23T08:41:13.810Z,156.53
2023-05-23T08:43:41.797Z,156.17
2023-05-23T08:46:13.211Z,156.33
2023-05-23T08:48:44.036Z,156.00
2023-05-23T08:51:15.708Z,156.43
2023-05-23T08:53:50.494Z,157.10
2023-05-23T08:56:20.279Z,156.97
2023-05-23T08:58:50.854Z,157.23
2023-05-23T09:01:23.525Z,156.83
2023-05-23T09:03:56.202Z,155.87
2023-05-23T09:07:00.211Z,156.27
2023-05-23T09:09:29.935Z,156.23
2023-05-23T09:11:59.669Z,156.33
2023-05-23T09:14:31.928Z,156.87
2023-05-23T09:17:04.929Z,156.40
2023-05-23T09:19:34.856Z,157.30
2023-05-23T09:22:16.095Z,157.20
2023-05-23T09:24:57.700Z,157.53
2023-05-23T09:27:25.721Z,157.47
2023-05-23T09:29:53.664Z,157.37
2023-05-23T09:32:22.444Z,157.40
2023-05-23T09:34:58.843Z,156.97
2023-05-23T09:37:32.732Z,156.97
2023-05-23T09:40:01.827Z,157.30
2023-05-23T09:42:38.536Z,157.27
2023-05-23T09:45:08.110Z,157.47
2023-05-23T09:47:36.364Z,157.10
2023-05-23T09:50:08.693Z,157.30
2023-05-23T09:52:41.993Z,157.13
2023-05-23T09:55:10.873Z,156.87
2023-05-23T09:57:42.447Z,157.63
2023-05-23T10:00:12.381Z,156.90
2023-05-23T10:02:57.245Z,157.47
2023-05-23T10:05:34.812Z,157.07
2023-05-23T10:08:07.329Z,157.57
2023-05-23T10:10:36.519Z,157.70
2023-05-23T10:13:06.443Z,157.53
2023-05-23T10:15:39.917Z,157.90
2023-05-23T10:18:13.796Z,157.83
2023-05-23T10:20:51.348Z,157.20
2023-05-23T10:23:21.131Z,157.27
2023-05-23T10:25:49.867Z,157.33
2023-05-23T10:28:18.457Z,157.37
2023-05-23T10:30:47.835Z,157.77
2023-05-23T10:33:17.679Z,158.20
2023-05-23T10:36:05.966Z,158.17
2023-05-23T10:38:40.704Z,157.90
2023-05-23T10:41:14.806Z,157.47
2023-05-23T10:43:49.897Z,158.10
2023-05-23T10:46:20.734Z,158.43
2023-05-23T10:48:48.703Z,158.03
2023-05-23T10:51:17.980Z,157.63
2023-05-23T10:53:47.092Z,158.27
2023-05-23T10:56:21.736Z,157.97
2023-05-23T10:58:54.710Z,157.73
2023-05-23T11:01:23.588Z,158.10
2023-05-23T11:03:55.237Z,157.70
2023-05-23T11:06:33.637Z,158.03
2023-05-23T11:09:07.502Z,158.87
2023-05-23T11:11:55.502Z,159.40
2023-05-23T11:14:34.348Z,159.03
2023-05-23T11:17:15.909Z,158.67
2023-05-23T11:19:57.869Z,158.50
2023-05-23T11:22:31.125Z,159.00
2023-05-23T11:25:00.353Z,158.23
2023-05-23T11:27:34.473Z,159.17
2023-05-23T11:30:05.842Z,158.13
2023-05-23T11:32:34.868Z,159.20
2023-05-23T11:35:03.946Z,158.70
2023-05-23T11:37:33.362Z,159.70
2023-05-23T11:40:21.469Z,159.40
2023-05-23T11:42:49.309Z,158.80
2023-05-23T11:45:17.189Z,159.53
2023-05-23T11:47:45.293Z,159.27
2023-05-23T11:50:13.230Z,159.47
2023-05-23T11:52:42.704Z,159.70
2023-05-23T11:55:11.109Z,159.93
2023-05-23T11:57:39.583Z,159.50
2023-05-23T12:00:08.860Z,159.20
2023-05-23T12:02:40.312Z,159.27
2023-05-23T12:05:09.969Z,159.37
2023-05-23T12:07:42.467Z,159.50
2023-05-23T12:10:11.777Z,159.70
2023-05-23T12:12:39.695Z,159.97
2023-05-23T12:15:09.195Z,159.90
2023-05-23T12:17:37.832Z,159.30
2023-05-23T12:20:06.959Z,159.47
2023-05-23T12:22:34.844Z,160.17
2023-05-23T12:25:05.570Z,159.50
2023-05-23T12:27:37.125Z,158.80
2023-05-23T12:30:09.509Z,159.03
2023-05-23T12:32:40.491Z,159.57
2023-05-23T12:35:10.130Z,158.47
2023-05-23T12:37:40.904Z,160.50
2023-05-23T12:40:30.315Z,159.67
2023-05-23T12:43:12.364Z,159.83
2023-05-23T12:45:40.562Z,159.23
2023-05-23T12:48:09.259Z,158.77
2023-05-23T12:50:37.227Z,160.03
2023-05-23T12:53:05.141Z,159.43
2023-05-23T12:55:34.341Z,159.33
2023-05-23T12:58:02.933Z,159.23
2023-05-23T13:00:30.798Z,158.83
2023-05-23T13:05:53.783Z,159.17
2023-05-23T13:08:22.408Z,160.23
2023-05-23T13:10:51.619Z,159.53
2023-05-23T13:13:19.651Z,160.37
2023-05-23T13:15:49.701Z,160.27
2023-05-23T13:18:18.889Z,158.83
2023-05-23T13:20:46.961Z,159.47
2023-05-23T13:23:15.100Z,160.30
2023-05-23T13:25:43.317Z,159.97
2023-05-23T13:28:12.714Z,159.90
2023-05-23T13:30:41.269Z,159.90
2023-05-23T13:33:13.830Z,159.53
2023-05-23T13:35:56.119Z,159.87
2023-05-23T13:38:26.776Z,160.20
2023-05-23T13:40:55.448Z,159.53
2023-05-23T13:43:24.656Z,159.53
2023-05-23T13:45:58.774Z,159.17
2023-05-23T13:48:26.749Z,158.93
2023-05-23T13:50:54.766Z,158.17
2023-05-23T13:53:23.309Z,158.00
2023-05-23T13:55:51.203Z,158.63
2023-05-23T13:58:19.110Z,158.23
2023-05-23T14:00:48.883Z,157.80
2023-05-23T14:03:19.267Z,157.87
2023-05-23T14:05:50.987Z,157.93
2023-05-23T14:08:18.890Z,157.67
2023-05-23T14:10:46.906Z,157.83
2023-05-23T14:13:15.449Z,158.03
2023-05-23T14:15:43.690Z,158.03
2023-05-23T14:18:13.197Z,158.47
2023-05-23T14:20:41.344Z,157.73
2023-05-23T14:23:09.314Z,157.10
2023-05-23T14:25:37.408Z,157.93
2023-05-23T14:28:05.335Z,158.60
2023-05-23T14:30:33.205Z,158.47
2023-05-23T14:33:01.224Z,158.47
2023-05-23T14:35:30.666Z,158.67
2023-05-23T14:37:58.533Z,158.30
2023-05-23T14:40:26.512Z,157.93
2023-05-23T14:42:54.413Z,158.23
2023-05-23T14:45:23.234Z,158.03
2023-05-23T14:47:51.585Z,158.90
2023-05-23T14:50:20.332Z,158.67
2023-05-23T14:52:49.551Z,159.23
2023-05-23T14:55:17.505Z,158.40
2023-05-23T14:57:45.395Z,158.87
2023-05-23T15:00:14.347Z,158.57
2023-05-23T15:02:42.273Z,158.97
2023-05-23T15:05:10.928Z,158.90
2023-05-23T15:07:39.204Z,158.73
2023-05-23T15:10:09.588Z,158.30
2023-05-23T15:12:37.563Z,158.37
2023-05-23T15:15:06.101Z,159.50
2023-05-23T15:17:34.420Z,158.60
2023-05-23T15:20:04.473Z,158.23
2023-05-23T15:22:39.857Z,159.00
2023-05-23T15:25:38.400Z,159.27
2023-05-23T15:28:14.384Z,158.53
2023-05-23T15:33:24.321Z,159.40
2023-05-23T15:35:52.938Z,159.27
2023-05-23T15:38:20.813Z,159.00
2023-05-23T15:40:52.508Z,158.43
2023-05-23T15:43:20.548Z,158.47
2023-05-23T15:45:50.612Z,158.27
2023-05-23T15:48:18.810Z,158.73
2023-05-23T15:50:46.987Z,158.77
2023-05-23T15:53:14.866Z,158.13
2023-05-23T15:56:44.302Z,158.77
2023-05-23T15:59:13.556Z,159.70
2023-05-23T16:01:41.972Z,159.40
2023-05-23T16:04:10.138Z,159.10
2023-05-23T16:06:40.264Z,158.07
2023-05-23T16:09:08.153Z,158.97
2023-05-23T16:11:36.128Z,157.97
2023-05-23T16:14:03.975Z,158.70
2023-05-23T16:16:33.219Z,158.77
2023-05-23T16:19:01.175Z,158.80
2023-05-23T16:21:29.084Z,158.13
2023-05-23T16:23:57.128Z,158.87
2023-05-23T16:26:24.982Z,157.63
2023-05-23T16:28:53.734Z,158.03
2023-05-23T16:31:27.307Z,157.10
2023-05-23T16:33:56.641Z,156.20
2023-05-23T16:36:24.508Z,157.30
2023-05-23T16:38:54.700Z,156.53
2023-05-23T16:41:23.500Z,157.40
2023-05-23T16:43:51.593Z,156.60
2023-05-23T16:46:22.094Z,157.33
2023-05-23T16:48:50.313Z,157.20
2023-05-23T16:51:19.584Z,157.07
2023-05-23T16:53:47.594Z,157.30
2023-05-23T16:56:15.650Z,156.90
2023-05-23T16:58:43.554Z,157.23
2023-05-23T17:01:11.441Z,156.63
2023-05-23T17:03:41.715Z,157.23
2023-05-23T17:06:09.854Z,157.23
2023-05-23T17:08:39.109Z,156.83
2023-05-23T17:11:07.236Z,157.17
2023-05-23T17:13:35.956Z,157.13
2023-05-23T17:16:03.973Z,157.70
2023-05-23T17:18:31.916Z,157.30
2023-05-23T17:21:00.332Z,157.77
2023-05-23T17:23:28.218Z,157.93
2023-05-23T17:25:57.414Z,157.97
2023-05-23T17:28:25.543Z,157.97
2023-05-23T17:30:53.464Z,157.33
2023-05-23T17:33:21.810Z,157.90
2023-05-23T17:35:49.850Z,157.63
2023-05-23T17:38:17.755Z,157.77
2023-05-23T17:40:45.888Z,158.03
2023-05-23T17:43:15.276Z,158.50
2023-05-23T17:45:43.118Z,158.03
2023-05-23T17:48:11.351Z,157.07
2023-05-23T17:50:39.501Z,157.37
2023-05-23T17:53:07.745Z,157.63
2023-05-23T17:55:35.640Z,157.90
2023-05-23T17:58:03.529Z,158.00
2023-05-23T18:00:32.821Z,156.90
2023-05-23T18:03:02.554Z,156.87
2023-05-23T18:05:30.697Z,157.80
2023-05-23T18:07:58.910Z,157.53
2023-05-23T18:10:26.778Z,157.90
2023-05-23T18:12:54.614Z,157.60
2023-05-23T18:15:22.579Z,155.40
2023-05-23T18:17:55.337Z,155.97
2023-05-23T18:20:23.334Z,155.40
2023-05-23T18:22:53.929Z,155.50
2023-05-23T18:25:27.190Z,156.20
2023-05-23T18:27:55.988Z,156.03
2023-05-23T18:30:24.016Z,156.43
2023-05-23T18:32:53.449Z,156.37
2023-05-23T18:35:21.903Z,156.60
2023-05-23T18:37:49.939Z,155.83
2023-05-23T18:40:18.224Z,155.67
2023-05-23T18:42:47.274Z,155.47
2023-05-23T18:45:15.146Z,155.70
2023-05-23T18:47:43.217Z,155.57
2023-05-23T18:50:14.204Z,155.60
2023-05-23T18:52:43.082Z,156.50
2023-05-23T18:55:12.049Z,155.67
2023-05-23T18:57:39.921Z,155.77
2023-05-23T19:00:09.187Z,156.30
2023-05-23T19:02:37.219Z,156.03
2023-05-23T19:05:05.723Z,156.53
2023-05-23T19:07:34.940Z,156.07
2023-05-23T19:10:02.882Z,156.67
2023-05-23T19:12:30.783Z,156.47
2023-05-23T19:14:59.111Z,156.13
2023-05-23T19:17:27.053Z,156.67
2023-05-23T19:19:55.539Z,155.67
2023-05-23T19:22:23.708Z,155.40
2023-05-23T19:24:52.907Z,156.30
2023-05-23T19:27:20.775Z,156.83
2023-05-23T19:29:48.642Z,156.50
2023-05-23T19:32:16.652Z,156.77
2023-05-23T19:34:45.123Z,156.67
2023-05-23T19:37:13.082Z,156.07
2023-05-23T19:39:45.521Z,156.77
2023-05-23T19:42:14.775Z,156.07
2023-05-23T19:44:42.816Z,156.50
2023-05-23T19:47:13.394Z,156.30
2023-05-23T19:49:41.472Z,156.67
2023-05-23T19:52:09.324Z,155.47
2023-05-23T19:54:37.325Z,156.33
2023-05-23T19:57:05.369Z,156.60
2023-05-23T19:59:34.876Z,155.60
2023-05-23T20:02:03.376Z,155.13
2023-05-23T20:04:31.378Z,155.80
2023-05-23T20:07:00.479Z,157.00
2023-05-23T20:09:28.321Z,156.57
2023-05-23T20:11:56.186Z,156.30
2023-05-23T20:14:24.039Z,156.90
2023-05-23T20:16:53.842Z,156.20
2023-05-23T20:19:21.830Z,156.80
2023-05-23T20:21:50.310Z,155.87
2023-05-23T20:24:18.285Z,155.97
2023-05-23T20:26:46.618Z,156.50
2023-05-23T20:29:14.512Z,156.50
2023-05-23T20:31:42.503Z,156.60
2023-05-23T20:34:11.776Z,157.03
2023-05-23T20:36:39.914Z,155.57
2023-05-23T20:39:07.805Z,157.17
2023-05-23T20:41:35.660Z,155.77
2023-05-23T20:44:03.523Z,155.23
2023-05-23T20:46:31.454Z,155.40
2023-05-23T20:48:59.378Z,155.53
2023-05-23T20:51:28.618Z,156.53
2023-05-23T20:53:56.525Z,155.20
2023-05-23T20:56:24.508Z,155.17
2023-05-23T20:58:52.442Z,156.27
2023-05-23T21:01:23.024Z,156.13
2023-05-23T21:03:51.080Z,155.43
2023-05-23T21:06:19.205Z,156.03
2023-05-23T21:08:48.413Z,156.40
2023-05-23T21:11:16.292Z,156.37
2023-05-23T21:13:44.648Z,156.27
2023-05-23T21:16:14.461Z,156.53
2023-05-23T21:18:42.662Z,156.93
2023-05-23T21:21:10.619Z,156.77
2023-05-23T21:23:38.504Z,156.93
2023-05-23T21:26:07.878Z,156.57
2023-05-23T21:28:35.818Z,156.87
2023-05-23T21:31:06.663Z,156.00
2023-05-23T21:33:34.592Z,156.27
2023-05-23T21:36:02.444Z,155.97
2023-05-23T21:38:30.366Z,156.20
2023-05-23T21:40:58.199Z,156.60
2023-05-23T21:43:27.622Z,155.97
2023-05-23T21:45:55.594Z,156.97
2023-05-23T21:48:23.463Z,156.23
2023-05-23T21:50:51.549Z,156.17
2023-05-23T21:53:19.423Z,155.87
2023-05-23T21:55:47.336Z,156.43
2023-05-23T21:58:15.999Z,155.67
2023-05-23T22:00:45.628Z,154.63
2023-05-23T22:03:13.615Z,154.73
2023-05-23T22:05:41.633Z,154.87
2023-05-23T22:08:09.518Z,154.57
2023-05-23T22:10:37.746Z,155.17
2023-05-23T22:13:05.688Z,155.03
2023-05-23T22:15:35.253Z,155.07
2023-05-23T22:18:05.027Z,154.53
2023-05-23T22:20:34.009Z,155.40
2023-05-23T22:23:03.013Z,156.27
2023-05-23T22:25:32.536Z,155.77
2023-05-23T22:28:01.297Z,156.40
2023-05-23T22:30:29.341Z,155.60
2023-05-23T22:32:57.759Z,155.97
2023-05-23T22:35:27.184Z,156.23
2023-05-23T22:37:55.494Z,156.00
2023-05-23T22:40:23.353Z,156.10
2023-05-23T22:42:51.236Z,156.97
2023-05-23T22:45:20.250Z,156.63
2023-05-23T22:47:50.542Z,156.77
2023-05-23T22:50:18.641Z,155.97
2023-05-23T22:52:48.446Z,155.20
2023-05-23T22:55:16.414Z,155.73
2023-05-23T22:57:44.270Z,156.00
2023-05-23T23:00:13.539Z,155.67
2023-05-23T23:02:41.443Z,155.27
2023-05-23T23:05:11.999Z,155.47
2023-05-23T23:07:39.898Z,155.50
2023-05-23T23:10:10.791Z,156.17
2023-05-23T23:12:38.859Z,155.83
2023-05-23T23:15:07.468Z,154.47
2023-05-23T23:17:35.414Z,154.33
2023-05-23T23:20:04.389Z,153.93
2023-05-23T23:22:32.264Z,154.63
2023-05-23T23:25:02.010Z,154.30
2023-05-23T23:27:32.265Z,155.20
2023-05-23T23:30:00.913Z,155.67
2023-05-23T23:32:28.805Z,154.73
2023-05-23T23:34:56.734Z,155.50
2023-05-23T23:37:24.657Z,155.20
2023-05-23T23:39:52.596Z,154.80
2023-05-23T23:42:20.538Z,155.43
2023-05-23T23:44:49.911Z,155.17
2023-05-23T23:47:17.778Z,155.13
2023-05-23T23:49:45.796Z,154.87
2023-05-23T23:52:13.702Z,155.10
2023-05-23T23:54:41.580Z,154.43
2023-05-23T23:57:13.557Z,155.53
2023-05-23T23:59:41.781Z,154.67
